Blair, Nebraska
Current Conditions -  °F | °C
As of 7:55 AM on Thursday 23 Oct 2014 (Local Time) from KBTA Reporting Station
Haze Haze  
Wind Chill: 58°   Ceiling: 400
Heat Index: 58°   Visibility: 5mi
Dew Point: 55°   Wind: 3mph
Humidity: 92%   Direction: 270°W
Pressure: 30.04"   Gusts: NA
Location:  41.54°N, 96.13°W
Report Text: KBTA 231255Z AUTO 27003KT 5SM BR OVC004 14/13 A3004 RMK AO2 T01420130
Loading
Personal Weather Stations






























Interactive Weather Map
Tropical Storm Tracking
New forecast layout! Learn more

10-Day Weather Forecast

Advertisements
Track Severe Weather on mobile